Time;durP1;ratioP1;P1;durP2;ratioP2;P2;SDS_P1;SDS_P2;PMS_P1;PMS_P2;Temp;Humidity;BMP_temperature;BMP_pressure;BME280_temperature;BME280_humidity;BME280_pressure;Samples;Min_cycle;Max_cycle;Signal;HPM_P1;HPM_P2
2021/01/05 00:01:57;;;;;;;;;;;;;;;0.92;100.00;100835.22;5096257;28;19924;-79
2021/01/05 00:04:23;;;;;;;;;;;;;;;0.91;100.00;100841.84;5044828;28;20272;-79
2021/01/05 00:06:50;;;;;;;;;;;;;;;0.88;100.00;100817.69;5061734;28;19924;-79
2021/01/05 00:09:17;;;;;;;;;;;;;;;0.83;100.00;100831.63;5078050;28;19924;-79
2021/01/05 00:11:54;;;;;;;;;;;;;;;0.77;100.00;100815.56;5078520;28;19925;-79
2021/01/05 00:14:20;;;;;;;;;;;;;;;0.74;100.00;100830.78;5096037;28;20313;-79
2021/01/05 00:16:46;;;;;;;;;;;;;;;0.77;100.00;100824.63;5096178;28;20392;-79
2021/01/05 00:19:13;;;;;;;;;;;;;;;0.84;100.00;100840.66;5095177;28;20324;-79
2021/01/05 00:21:39;;;;;;;;;;;;;;;0.81;100.00;100820.13;5077636;28;20339;-79
2021/01/05 00:24:06;;;;;;;;;;;;;;;0.82;100.00;100821.72;5060898;28;20260;-79
2021/01/05 00:26:36;;;;;;;;;;;;;;;0.83;100.00;100811.53;5061186;28;19973;-79
2021/01/05 00:29:03;;;;;;;;;;;;;;;0.84;100.00;100813.97;5061387;28;20355;-79
2021/01/05 00:31:30;;;;;;;;;;;;;;;0.87;100.00;100805.06;5096167;28;19930;-79
2021/01/05 00:33:57;;;;;;;;;;;;;;;0.86;100.00;100803.47;5077582;28;19931;-79
2021/01/05 00:36:24;;;;;;;;;;;;;;;0.83;100.00;100815.09;5077490;28;19928;-79
2021/01/05 00:38:51;;;;;;;;;;;;;;;0.81;100.00;100805.53;5095453;28;20367;-79
2021/01/05 00:41:19;;;;;;;;;;;;;;;0.79;100.00;100799.56;5077653;28;19931;-79
2021/01/05 00:43:46;;;;;;;;;;;;;;;0.78;100.00;100795.16;5077701;28;20321;-79
2021/01/05 00:46:13;;;;;;;;;;;;;;;0.71;100.00;100795.59;5077658;28;19924;-79
2021/01/05 00:48:41;;;;;;;;;;;;;;;0.69;100.00;100795.13;5077354;28;19924;-79
2021/01/05 00:51:09;;;;;;;;;;;;;;;0.75;100.00;100802.13;5077590;28;19928;-78
2021/01/05 00:53:35;;;;;;;;;;;;;;;0.76;100.00;100798.22;5077089;28;20591;-79
2021/01/05 00:56:02;;;;;;;;;;;;;;;0.75;100.00;100785.59;5095314;28;20386;-79
2021/01/05 00:58:29;;;;;;;;;;;;;;;0.79;100.00;100797.59;5095345;28;19959;-79
2021/01/05 01:00:56;;;;;;;;;;;;;;;0.81;100.00;100795.34;5077048;28;20367;-79
2021/01/05 01:03:24;;;;;;;;;;;;;;;0.78;100.00;100812.50;5077047;28;20287;-79
2021/01/05 01:05:53;;;;;;;;;;;;;;;0.75;100.00;100799.38;5094991;28;19931;-79
2021/01/05 01:08:23;;;;;;;;;;;;;;;0.82;100.00;100791.44;5060163;28;19967;-79
2021/01/05 01:10:54;;;;;;;;;;;;;;;0.75;100.00;100806.78;5044404;28;20425;-79
2021/01/05 01:13:23;;;;;;;;;;;;;;;0.76;100.00;100780.91;5076737;28;19924;-79
2021/01/05 01:15:50;;;;;;;;;;;;;;;0.72;100.00;100797.25;5076851;28;20317;-79
2021/01/05 01:18:17;;;;;;;;;;;;;;;0.75;100.00;100790.28;5060469;28;20395;-78
2021/01/05 01:20:44;;;;;;;;;;;;;;;0.70;100.00;100788.50;5076877;28;19924;-79
2021/01/05 01:23:17;;;;;;;;;;;;;;;0.71;100.00;100783.81;5094205;28;20012;-78
2021/01/05 01:25:48;;;;;;;;;;;;;;;0.69;100.00;100786.06;5060465;28;19962;-78
2021/01/05 01:28:15;;;;;;;;;;;;;;;0.67;100.00;100786.38;5076778;28;20022;-78
2021/01/05 01:30:47;;;;;;;;;;;;;;;0.69;100.00;100781.38;5076544;28;20431;-78
2021/01/05 01:33:15;;;;;;;;;;;;;;;0.68;100.00;100782.47;5094628;28;20000;-79
2021/01/05 01:35:42;;;;;;;;;;;;;;;0.70;100.00;100777.47;5060186;28;19924;-79
2021/01/05 01:38:11;;;;;;;;;;;;;;;0.73;100.00;100765.03;5060493;28;19928;-79
2021/01/05 01:40:47;;;;;;;;;;;;;;;0.73;100.00;100768.59;5076457;28;20383;-79
2021/01/05 01:43:34;;;;;;;;;;;;;;;0.77;100.00;100788.88;5079112;28;20371;-79
2021/01/05 01:46:09;;;;;;;;;;;;;;;0.76;100.00;100772.66;5076600;28;20274;-78
2021/01/05 01:48:41;;;;;;;;;;;;;;;0.76;100.00;100770.72;5059669;28;19924;-80
2021/01/05 01:51:09;;;;;;;;;;;;;;;0.77;100.00;100761.34;5076169;28;19934;-78
2021/01/05 01:53:49;;;;;;;;;;;;;;;0.78;100.00;100762.97;5094712;28;19978;-78
2021/01/05 01:56:37;;;;;;;;;;;;;;;0.81;100.00;100761.50;5059786;28;19971;-78
2021/01/05 01:59:18;;;;;;;;;;;;;;;0.77;100.00;100755.84;5094435;28;19949;-78
2021/01/05 02:01:56;;;;;;;;;;;;;;;0.80;100.00;100760.72;5076514;28;20376;-81
2021/01/05 02:04:45;;;;;;;;;;;;;;;0.82;100.00;100763.94;5076505;28;19931;-81
2021/01/05 02:07:16;;;;;;;;;;;;;;;0.80;100.00;100752.44;5043517;28;19924;-78
2021/01/05 02:09:43;;;;;;;;;;;;;;;0.78;100.00;100749.19;5059508;28;19924;-78
2021/01/05 02:12:13;;;;;;;;;;;;;;;0.73;100.00;100754.84;5076318;28;20064;-78
2021/01/05 02:14:59;;;;;;;;;;;;;;;0.70;100.00;100738.97;5076281;28;19924;-79
2021/01/05 02:17:42;;;;;;;;;;;;;;;0.74;100.00;100744.66;5076516;28;19938;-78
2021/01/05 02:20:20;;;;;;;;;;;;;;;0.73;100.00;100737.50;5076219;28;19970;-78
2021/01/05 02:22:53;;;;;;;;;;;;;;;0.72;100.00;100744.97;5076565;28;19935;-78
2021/01/05 02:25:35;;;;;;;;;;;;;;;0.74;100.00;100745.47;5076312;28;20385;-81
2021/01/05 02:28:03;;;;;;;;;;;;;;;0.71;100.00;100746.06;5092979;28;19928;-80
2021/01/05 02:30:37;;;;;;;;;;;;;;;0.74;100.00;100745.47;5060094;28;19930;-79
2021/01/05 02:33:13;;;;;;;;;;;;;;;0.74;100.00;100744.66;5093011;28;19924;-81
2021/01/05 02:35:46;;;;;;;;;;;;;;;0.81;100.00;100756.81;5076094;28;20257;-78
2021/01/05 02:38:49;;;;;;;;;;;;;;;0.82;100.00;100750.16;5075977;28;20438;-79
2021/01/05 02:41:53;;;;;;;;;;;;;;;0.87;100.00;100750.03;5078911;28;19924;-78
2021/01/05 02:44:56;;;;;;;;;;;;;;;0.88;100.00;100751.66;5035018;28;19931;-78
2021/01/05 02:48:00;;;;;;;;;;;;;;;0.83;100.00;100749.06;5021671;28;19931;-78
2021/01/05 02:50:44;;;;;;;;;;;;;;;0.88;100.00;100751.66;5021179;28;20023;-78
2021/01/05 02:53:48;;;;;;;;;;;;;;;0.85;100.00;100741.28;5021367;28;20589;-78
2021/01/05 02:56:39;;;;;;;;;;;;;;;0.92;100.00;100749.06;5035373;28;19925;-80
2021/01/05 02:59:42;;;;;;;;;;;;;;;0.98;100.00;100750.56;5035231;28;19948;-80
2021/01/05 03:02:46;;;;;;;;;;;;;;;0.87;100.00;100744.53;5004788;28;19932;-80
2021/01/05 03:05:30;;;;;;;;;;;;;;;0.90;100.00;100732.88;5018403;28;19991;-80
2021/01/05 03:08:19;;;;;;;;;;;;;;;0.83;100.00;100731.72;5021144;28;19925;-78
2021/01/05 03:11:23;;;;;;;;;;;;;;;0.81;100.00;100737.56;5034824;28;19929;-80
2021/01/05 03:14:13;;;;;;;;;;;;;;;0.79;100.00;100748.06;5034533;28;19929;-78
2021/01/05 03:17:02;;;;;;;;;;;;;;;0.78;100.00;100731.88;5035061;28;19971;-79
2021/01/05 03:19:47;;;;;;;;;;;;;;;0.92;100.00;100747.16;5034659;28;19982;-80
2021/01/05 03:22:35;;;;;;;;;;;;;;;0.88;100.00;100757.16;5020454;28;19983;-80
2021/01/05 03:25:22;;;;;;;;;;;;;;;0.75;100.00;100741.59;5054968;28;19932;-78
2021/01/05 03:28:10;;;;;;;;;;;;;;;0.67;100.00;100750.59;5037985;28;19932;-78
2021/01/05 03:30:59;;;;;;;;;;;;;;;0.67;100.00;100758.03;5054624;28;19974;-78
2021/01/05 03:33:47;;;;;;;;;;;;;;;0.65;100.00;100761.09;5054389;28;20407;-78
2021/01/05 03:36:31;;;;;;;;;;;;;;;0.71;100.00;100768.09;5054590;28;19958;-78
2021/01/05 03:39:16;;;;;;;;;;;;;;;0.70;100.00;100771.16;5054453;28;20360;-78
2021/01/05 03:42:01;;;;;;;;;;;;;;;0.81;100.00;100778.84;5054466;28;19925;-81
2021/01/05 03:44:47;;;;;;;;;;;;;;;0.83;100.00;100784.00;5054380;28;20361;-80
2021/01/05 03:47:45;;;;;;;;;;;;;;;0.83;100.00;100776.59;5014278;28;19925;-78
2021/01/05 03:50:30;;;;;;;;;;;;;;;0.77;100.00;100777.03;4998261;28;19926;-80
2021/01/05 03:53:16;;;;;;;;;;;;;;;0.75;100.00;100774.59;4998173;28;19926;-78
2021/01/05 03:56:01;;;;;;;;;;;;;;;0.78;100.00;100762.97;5014598;28;19925;-80
2021/01/05 03:58:46;;;;;;;;;;;;;;;0.86;100.00;100786.13;4997985;28;19932;-80
2021/01/05 04:01:35;;;;;;;;;;;;;;;0.85;100.00;100776.25;4997303;28;19926;-77
2021/01/05 04:04:02;;;;;;;;;;;;;;;0.89;100.00;100785.50;5014032;28;20405;-80
2021/01/05 04:06:29;;;;;;;;;;;;;;;0.98;100.00;100789.09;5013973;28;19937;-80
2021/01/05 04:08:56;;;;;;;;;;;;;;;0.93;100.00;100790.03;4997813;28;19925;-78
2021/01/05 04:11:23;;;;;;;;;;;;;;;0.95;100.00;100785.03;5013893;28;19930;-80
2021/01/05 04:13:50;;;;;;;;;;;;;;;0.94;100.00;100788.91;4997340;28;19999;-80
2021/01/05 04:16:16;;;;;;;;;;;;;;;0.92;100.00;100787.63;5013577;28;19926;-80
2021/01/05 04:18:43;;;;;;;;;;;;;;;0.83;100.00;100787.59;5013779;28;19926;-80
2021/01/05 04:21:11;;;;;;;;;;;;;;;0.78;100.00;100789.66;5013618;28;20019;-80
2021/01/05 04:23:38;;;;;;;;;;;;;;;0.77;100.00;100783.34;5009209;28;19929;-80
2021/01/05 04:26:07;;;;;;;;;;;;;;;0.81;100.00;100800.84;5017197;28;19925;-80
2021/01/05 04:28:33;;;;;;;;;;;;;;;0.82;100.00;100802.47;5033430;28;19995;-79
2021/01/05 04:31:00;;;;;;;;;;;;;;;0.88;100.00;100800.41;5000346;28;19925;-79
2021/01/05 04:33:28;;;;;;;;;;;;;;;1.01;100.00;100811.28;5016868;28;19933;-80
2021/01/05 04:35:55;;;;;;;;;;;;;;;1.05;100.00;100823.28;5016624;28;20431;-80
2021/01/05 04:38:21;;;;;;;;;;;;;;;1.02;100.00;100818.41;5036330;28;19924;-77
2021/01/05 04:40:48;;;;;;;;;;;;;;;0.98;100.00;100814.69;5095528;28;19931;-80
2021/01/05 04:43:33;;;;;;;;;;;;;;;0.97;100.00;100826.81;5077440;28;19924;-77
2021/01/05 04:46:07;;;;;;;;;;;;;;;0.92;100.00;100824.22;5095109;28;19924;-80
2021/01/05 04:48:38;;;;;;;;;;;;;;;0.97;100.00;100820.50;5060819;28;19924;-80
2021/01/05 04:51:11;;;;;;;;;;;;;;;1.02;100.00;100823.91;5077410;28;20314;-80
2021/01/05 04:53:41;;;;;;;;;;;;;;;0.95;100.00;100820.00;5095447;28;19925;-79
2021/01/05 04:56:10;;;;;;;;;;;;;;;0.98;100.00;100811.94;5095350;28;20405;-80
2021/01/05 04:58:46;;;;;;;;;;;;;;;0.97;100.00;100804.78;5095161;28;19932;-80
2021/01/05 05:01:23;;;;;;;;;;;;;;;0.90;100.00;100815.44;5077018;28;19932;-78
2021/01/05 05:03:52;;;;;;;;;;;;;;;0.90;100.00;100804.44;5060527;28;20006;-78
2021/01/05 05:06:29;;;;;;;;;;;;;;;0.89;100.00;100802.84;5094451;28;20006;-78
2021/01/05 05:09:02;;;;;;;;;;;;;;;1.00;100.00;100809.66;5076838;28;19924;-78
2021/01/05 05:11:33;;;;;;;;;;;;;;;0.87;100.00;100810.59;5076836;28;19928;-79
2021/01/05 05:14:02;;;;;;;;;;;;;;;0.71;100.00;100806.59;5094616;28;20406;-78
2021/01/05 05:16:28;;;;;;;;;;;;;;;0.66;100.00;100806.78;5094826;28;20420;-78
2021/01/05 05:19:01;;;;;;;;;;;;;;;0.80;100.00;100818.50;5076852;28;19924;-78
2021/01/05 05:21:28;;;;;;;;;;;;;;;0.80;100.00;100832.25;5076901;28;19924;-79
2021/01/05 05:24:13;;;;;;;;;;;;;;;0.78;100.00;100829.00;5060179;28;20350;-78
2021/01/05 05:26:44;;;;;;;;;;;;;;;0.81;100.00;100844.88;5110411;28;19932;-78
2021/01/05 05:29:24;;;;;;;;;;;;;;;0.70;100.00;100839.94;5076104;28;20256;-79
2021/01/05 05:31:50;;;;;;;;;;;;;;;0.66;100.00;100864.53;5094465;28;19924;-78
2021/01/05 05:34:22;;;;;;;;;;;;;;;0.69;100.00;100880.41;5076253;28;20369;-78
2021/01/05 05:36:52;;;;;;;;;;;;;;;0.66;100.00;100894.00;5060114;28;19928;-78
2021/01/05 05:39:37;;;;;;;;;;;;;;;0.67;100.00;100915.69;5076446;28;19931;-78
2021/01/05 05:42:27;;;;;;;;;;;;;;;0.75;100.00;100964.47;5059769;28;20035;-78
2021/01/05 05:44:57;;;;;;;;;;;;;;;0.71;100.00;100993.72;5011703;28;19981;-78
2021/01/05 05:47:29;;;;;;;;;;;;;;;0.73;100.00;101024.50;4995974;28;19952;-78
2021/01/05 05:50:09;;;;;;;;;;;;;;;0.77;100.00;101042.03;5012115;28;19925;-78
2021/01/05 05:52:54;;;;;;;;;;;;;;;0.79;100.00;101064.53;4996072;28;20060;-78
2021/01/05 05:55:33;;;;;;;;;;;;;;;0.79;100.00;101094.81;4995644;28;20365;-78
2021/01/05 05:58:01;;;;;;;;;;;;;;;0.83;100.00;101103.25;5011969;28;20044;-78
2021/01/05 06:00:31;;;;;;;;;;;;;;;0.77;100.00;101123.78;5011996;28;19968;-78
2021/01/05 06:02:59;;;;;;;;;;;;;;;0.77;100.00;101141.09;4995784;28;20037;-78
2021/01/05 06:05:25;;;;;;;;;;;;;;;0.79;100.00;101162.81;5012000;28;19959;-78
2021/01/05 06:07:52;;;;;;;;;;;;;;;0.75;100.00;101184.63;4995590;28;19925;-79
2021/01/05 06:10:19;;;;;;;;;;;;;;;0.83;100.00;101205.09;4995667;28;20020;-78
2021/01/05 06:12:45;;;;;;;;;;;;;;;0.82;100.00;101231.81;4995380;28;19932;-78
2021/01/05 06:15:12;;;;;;;;;;;;;;;0.76;100.00;101243.25;4995336;28;20588;-78
2021/01/05 06:17:39;;;;;;;;;;;;;;;0.83;100.00;101266.47;4995878;28;19929;-78
2021/01/05 06:20:06;;;;;;;;;;;;;;;0.87;100.00;101289.50;5015938;28;20016;-78
2021/01/05 06:22:32;;;;;;;;;;;;;;;0.88;100.00;101299.38;5065943;28;19924;-78
2021/01/05 06:24:59;;;;;;;;;;;;;;;0.87;100.00;101300.53;5080071;28;19931;-78
2021/01/05 06:27:25;;;;;;;;;;;;;;;0.84;100.00;101323.16;5079817;28;19928;-78
2021/01/05 06:29:52;;;;;;;;;;;;;;;0.83;100.00;101349.06;5080024;28;19932;-78
2021/01/05 06:32:19;;;;;;;;;;;;;;;0.75;100.00;101365.44;5079850;28;19928;-78
2021/01/05 06:34:45;;;;;;;;;;;;;;;0.67;100.00;101377.97;5079599;28;19930;-78
2021/01/05 06:37:12;;;;;;;;;;;;;;;0.71;100.00;101414.75;5097683;28;19924;-78
2021/01/05 06:39:38;;;;;;;;;;;;;;;0.76;100.00;101431.19;5063032;28;19928;-78
2021/01/05 06:42:05;;;;;;;;;;;;;;;0.84;100.00;101438.75;5113207;28;19924;-78
2021/01/05 06:44:31;;;;;;;;;;;;;;;0.83;100.00;101453.66;5079681;28;20015;-78
2021/01/05 06:46:58;;;;;;;;;;;;;;;0.84;100.00;101459.94;5097599;28;19986;-77
2021/01/05 06:49:36;;;;;;;;;;;;;;;0.75;100.00;101479.09;5097566;28;20018;-78
2021/01/05 06:52:04;;;;;;;;;;;;;;;0.79;100.00;101480.13;5079792;28;19973;-78
2021/01/05 06:54:31;;;;;;;;;;;;;;;0.82;100.00;101496.03;5097384;28;20062;-78
2021/01/05 06:56:57;;;;;;;;;;;;;;;0.85;100.00;101500.16;5078886;28;19924;-78
2021/01/05 06:59:25;;;;;;;;;;;;;;;0.89;100.00;101504.75;5097306;28;19974;-78
2021/01/05 07:01:53;;;;;;;;;;;;;;;0.87;100.00;101503.38;5097196;28;19951;-78
2021/01/05 07:04:19;;;;;;;;;;;;;;;0.90;100.00;101509.13;5097084;28;20019;-78
2021/01/05 07:06:46;;;;;;;;;;;;;;;0.89;100.00;101503.91;5097256;28;20386;-78
2021/01/05 07:09:14;;;;;;;;;;;;;;;0.85;100.00;101511.94;5062329;28;19928;-78
2021/01/05 07:11:40;;;;;;;;;;;;;;;0.90;100.00;101514.63;5096827;28;19924;-78
2021/01/05 07:14:07;;;;;;;;;;;;;;;0.86;100.00;101513.59;5097275;28;19949;-78
2021/01/05 07:16:34;;;;;;;;;;;;;;;0.80;100.00;101502.97;5062514;28;19946;-78
2021/01/05 07:19:00;;;;;;;;;;;;;;;0.81;100.00;101483.41;5079074;28;20038;-78
2021/01/05 07:21:27;;;;;;;;;;;;;;;0.86;100.00;101491.59;5078622;28;20279;-77
2021/01/05 07:23:53;;;;;;;;;;;;;;;0.87;100.00;101487.69;5096627;28;20014;-77
2021/01/05 07:26:20;;;;;;;;;;;;;;;0.86;100.00;101475.06;5096760;28;19924;-79
2021/01/05 07:28:46;;;;;;;;;;;;;;;0.84;100.00;101466.28;5078593;28;19924;-77
2021/01/05 07:31:13;;;;;;;;;;;;;;;0.82;100.00;101446.50;5096773;28;19924;-75
2021/01/05 07:33:39;;;;;;;;;;;;;;;0.79;100.00;101441.59;5060280;28;20379;-77
2021/01/05 07:36:13;;;;;;;;;;;;;;;0.88;100.00;101427.97;5096452;28;20024;-78
2021/01/05 07:38:40;;;;;;;;;;;;;;;0.90;100.00;101404.50;5096517;28;19924;-77
2021/01/05 07:41:07;;;;;;;;;;;;;;;0.86;100.00;101386.97;5096487;28;19925;-78
2021/01/05 07:43:34;;;;;;;;;;;;;;;0.87;100.00;101366.59;5096393;28;20346;-77
2021/01/05 07:46:01;;;;;;;;;;;;;;;0.85;100.00;101343.25;5078127;28;19947;-77
2021/01/05 07:48:27;;;;;;;;;;;;;;;0.86;100.00;101317.34;5078416;28;19924;-77
2021/01/05 07:50:54;;;;;;;;;;;;;;;0.84;100.00;101287.38;5096347;28;19924;-77
2021/01/05 07:53:20;;;;;;;;;;;;;;;0.82;100.00;101248.31;5095983;28;20393;-77
2021/01/05 07:55:49;;;;;;;;;;;;;;;0.96;100.00;101226.28;5096399;28;20263;-77
2021/01/05 07:58:15;;;;;;;;;;;;;;;0.93;100.00;101178.16;5096162;28;19989;-77
2021/01/05 08:00:42;;;;;;;;;;;;;;;0.88;100.00;101125.97;5096160;28;19924;-77
2021/01/05 08:03:11;;;;;;;;;;;;;;;0.87;100.00;101077.56;5096136;28;20287;-77
2021/01/05 08:05:38;;;;;;;;;;;;;;;0.99;100.00;101028.28;5077943;28;20516;-77
2021/01/05 08:08:04;;;;;;;;;;;;;;;0.98;100.00;100955.06;5095722;28;19951;-77
2021/01/05 08:10:40;;;;;;;;;;;;;;;1.02;100.00;100881.72;5096210;28;19924;-78
2021/01/05 08:13:09;;;;;;;;;;;;;;;1.01;100.00;100816.81;5078666;28;19943;-78
2021/01/05 08:15:36;;;;;;;;;;;;;;;1.03;100.00;100792.50;5074525;28;19931;-77
2021/01/05 08:18:10;;;;;;;;;;;;;;;0.98;100.00;100759.63;5074431;28;19931;-77
2021/01/05 08:20:36;;;;;;;;;;;;;;;1.04;100.00;100735.50;5075491;28;19931;-77
2021/01/05 08:23:03;;;;;;;;;;;;;;;1.07;100.00;100708.16;5075390;28;20287;-78
2021/01/05 08:25:31;;;;;;;;;;;;;;;1.02;100.00;100683.53;5074249;28;20318;-78
2021/01/05 08:27:58;;;;;;;;;;;;;;;1.01;100.00;100668.16;5075380;28;20275;-77
2021/01/05 08:30:32;;;;;;;;;;;;;;;0.99;100.00;100648.38;5074235;28;20374;-78
2021/01/05 08:33:08;;;;;;;;;;;;;;;0.99;100.00;100642.88;5075373;28;20287;-78
2021/01/05 08:35:35;;;;;;;;;;;;;;;1.04;100.00;100615.19;5074246;28;19932;-78
2021/01/05 08:38:01;;;;;;;;;;;;;;;1.04;100.00;100595.94;5075092;28;19932;-78
2021/01/05 08:40:29;;;;;;;;;;;;;;;1.09;100.00;100593.00;5074369;28;19935;-78
2021/01/05 08:42:57;;;;;;;;;;;;;;;1.18;100.00;100580.03;5075364;28;20368;-77
2021/01/05 08:45:25;;;;;;;;;;;;;;;1.16;100.00;100574.06;5075215;28;20367;-77
2021/01/05 08:47:52;;;;;;;;;;;;;;;1.07;100.00;100567.75;5074146;28;19970;-79
2021/01/05 08:50:21;;;;;;;;;;;;;;;1.15;100.00;100569.66;5057874;28;19925;-79
2021/01/05 08:52:47;;;;;;;;;;;;;;;1.13;100.00;100560.94;5057286;28;19935;-78
2021/01/05 08:55:14;;;;;;;;;;;;;;;1.05;100.00;100552.69;5075122;28;20388;-78
2021/01/05 08:57:40;;;;;;;;;;;;;;;1.01;100.00;100547.03;5074421;28;19947;-78
2021/01/05 09:00:07;;;;;;;;;;;;;;;0.96;100.00;100544.44;5090902;28;19924;-78
2021/01/05 09:02:34;;;;;;;;;;;;;;;0.99;100.00;100560.31;5075358;28;19928;-78
2021/01/05 09:05:00;;;;;;;;;;;;;;;1.13;100.00;100560.94;5075108;28;19924;-78
2021/01/05 09:07:27;;;;;;;;;;;;;;;1.03;100.00;100553.00;5073548;28;19925;-78
2021/01/05 09:09:54;;;;;;;;;;;;;;;1.06;100.00;100563.38;5068484;28;19939;-75
2021/01/05 09:12:21;;;;;;;;;;;;;;;0.95;100.00;100558.53;5066433;28;19956;-74
2021/01/05 09:14:47;;;;;;;;;;;;;;;1.02;100.00;100559.66;5066332;28;19928;-76
2021/01/05 09:17:16;;;;;;;;;;;;;;;1.00;100.00;100561.91;5070105;28;19952;-74
2021/01/05 09:19:42;;;;;;;;;;;;;;;1.05;100.00;100570.00;5070449;28;19932;-75
2021/01/05 09:22:09;;;;;;;;;;;;;;;1.04;100.00;100573.09;5069651;28;19932;-74
2021/01/05 09:24:35;;;;;;;;;;;;;;;1.09;100.00;100565.47;5070323;28;19924;-74
2021/01/05 09:27:02;;;;;;;;;;;;;;;1.16;100.00;100565.81;5069464;28;20017;-75
2021/01/05 09:29:30;;;;;;;;;;;;;;;1.07;100.00;100566.94;5070098;28;19928;-76
2021/01/05 09:31:56;;;;;;;;;;;;;;;1.20;100.00;100566.75;5070240;28;19924;-73
2021/01/05 09:34:24;;;;;;;;;;;;;;;1.25;100.00;100579.56;5070020;28;20015;-73
2021/01/05 09:36:51;;;;;;;;;;;;;;;1.19;100.00;100570.66;5101742;28;20379;-74
2021/01/05 09:39:19;;;;;;;;;;;;;;;1.14;100.00;100576.31;5070543;28;20366;-74
2021/01/05 09:41:47;;;;;;;;;;;;;;;1.20;100.00;100577.78;5069870;28;20537;-74
2021/01/05 09:44:14;;;;;;;;;;;;;;;1.30;100.00;100593.16;5069305;28;19928;-73
2021/01/05 09:46:41;;;;;;;;;;;;;;;1.15;100.00;100580.69;5070062;28;19932;-74
2021/01/05 09:49:18;;;;;;;;;;;;;;;1.30;100.00;100574.69;5070051;28;19932;-74
2021/01/05 09:51:44;;;;;;;;;;;;;;;1.20;100.00;100577.78;5068418;28;19982;-77
2021/01/05 09:54:12;;;;;;;;;;;;;;;1.26;100.00;100576.47;5085497;28;19939;-76
2021/01/05 09:56:48;;;;;;;;;;;;;;;1.29;100.00;100570.31;5069927;28;19928;-76
2021/01/05 09:59:15;;;;;;;;;;;;;;;1.37;100.00;100582.44;5070792;28;19989;-77
2021/01/05 10:01:41;;;;;;;;;;;;;;;1.35;100.00;100582.78;5068805;28;19931;-76
2021/01/05 10:04:09;;;;;;;;;;;;;;;1.30;100.00;100577.44;5069852;28;19924;-80
2021/01/05 10:06:35;;;;;;;;;;;;;;;1.39;100.00;100586.50;5070649;28;19963;-74
2021/01/05 10:09:08;;;;;;;;;;;;;;;1.43;100.00;100601.25;5069815;28;20272;-76
2021/01/05 10:11:37;;;;;;;;;;;;;;;1.35;100.00;100604.81;5069521;28;19925;-74
2021/01/05 10:14:06;;;;;;;;;;;;;;;1.37;100.00;100596.22;5073947;28;19928;-80
2021/01/05 10:16:32;;;;;;;;;;;;;;;1.30;100.00;100593.94;5087558;28;19955;-73
2021/01/05 10:19:01;;;;;;;;;;;;;;;1.36;100.00;100598.16;5091373;28;19924;-76
2021/01/05 10:21:40;;;;;;;;;;;;;;;1.33;100.00;100609.81;5092439;28;20026;-76
2021/01/05 10:24:08;;;;;;;;;;;;;;;1.35;100.00;100599.31;5075513;28;19928;-76
2021/01/05 10:26:35;;;;;;;;;;;;;;;1.45;100.00;100612.72;5076250;28;19944;-76
2021/01/05 10:29:02;;;;;;;;;;;;;;;1.55;100.00;100612.41;5075833;28;19924;-77
2021/01/05 10:31:39;;;;;;;;;;;;;;;1.64;100.00;100615.97;5093819;28;19930;-76
2021/01/05 10:34:06;;;;;;;;;;;;;;;1.57;100.00;100603.81;5058909;28;20360;-76
2021/01/05 10:36:32;;;;;;;;;;;;;;;1.57;100.00;100620.34;5093802;28;19950;-76
2021/01/05 10:39:05;;;;;;;;;;;;;;;1.52;100.00;100624.09;5075915;28;19931;-77
2021/01/05 10:41:34;;;;;;;;;;;;;;;1.52;100.00;100613.06;5093766;28;19931;-78
2021/01/05 10:44:01;;;;;;;;;;;;;;;1.53;100.00;100617.44;5093716;28;19970;-76
2021/01/05 10:46:27;;;;;;;;;;;;;;;1.52;100.00;100607.56;5093649;28;20013;-77
2021/01/05 10:48:54;;;;;;;;;;;;;;;1.53;100.00;100617.44;5093343;28;19930;-77
2021/01/05 10:51:21;;;;;;;;;;;;;;;1.57;100.00;100614.84;5093689;28;19924;-76
2021/01/05 10:53:47;;;;;;;;;;;;;;;1.42;100.00;100605.13;5093591;28;20014;-76
2021/01/05 10:56:15;;;;;;;;;;;;;;;1.36;100.00;100609.19;5075445;28;20337;-76
2021/01/05 10:58:41;;;;;;;;;;;;;;;1.37;100.00;100602.56;5093490;28;20332;-76
2021/01/05 11:01:08;;;;;;;;;;;;;;;1.36;100.00;100611.94;5093476;28;19985;-77
2021/01/05 11:03:36;;;;;;;;;;;;;;;1.36;100.00;100608.38;5093447;28;19959;-77
2021/01/05 11:06:06;;;;;;;;;;;;;;;1.43;100.00;100600.44;5097328;28;20375;-77
2021/01/05 11:08:32;;;;;;;;;;;;;;;1.37;100.00;100616.31;5079539;28;19924;-77
2021/01/05 11:11:02;;;;;;;;;;;;;;;1.42;100.00;100605.13;5079539;28;19924;-76
2021/01/05 11:13:29;;;;;;;;;;;;;;;1.27;100.00;100607.59;5097325;28;20021;-78
2021/01/05 11:15:56;;;;;;;;;;;;;;;1.23;100.00;100610.16;5097141;28;19924;-77
2021/01/05 11:18:22;;;;;;;;;;;;;;;1.24;100.00;100602.72;5079012;28;19931;-77
2021/01/05 11:20:49;;;;;;;;;;;;;;;1.29;100.00;100602.53;5096995;28;19924;-76
2021/01/05 11:23:15;;;;;;;;;;;;;;;1.36;100.00;100598.16;5096902;28;19985;-77
2021/01/05 11:25:42;;;;;;;;;;;;;;;1.47;100.00;100596.69;5096811;28;19932;-76
2021/01/05 11:28:11;;;;;;;;;;;;;;;1.47;100.00;100599.44;5097029;28;19931;-77
2021/01/05 11:30:37;;;;;;;;;;;;;;;1.42;100.00;100601.56;5097056;28;19931;-76
2021/01/05 11:33:04;;;;;;;;;;;;;;;1.32;100.00;100602.72;5096697;28;19948;-77
2021/01/05 11:35:31;;;;;;;;;;;;;;;1.28;100.00;100579.72;5097038;28;19924;-76
2021/01/05 11:37:57;;;;;;;;;;;;;;;1.44;100.00;100597.34;5096833;28;20026;-77
2021/01/05 11:40:24;;;;;;;;;;;;;;;1.47;100.00;100596.69;5096581;28;19931;-77
2021/01/05 11:42:50;;;;;;;;;;;;;;;1.66;100.00;100602.66;5096466;28;20018;-77
2021/01/05 11:45:17;;;;;;;;;;;;;;;1.70;100.00;100609.13;5078264;28;19924;-76
2021/01/05 11:47:47;;;;;;;;;;;;;;;1.79;100.00;100601.66;5078807;28;19924;-78
2021/01/05 11:50:16;;;;;;;;;;;;;;;1.85;100.00;100585.75;5096509;28;20011;-78
2021/01/05 11:52:43;;;;;;;;;;;;;;;1.96;100.00;100591.69;5096351;28;19962;-78
2021/01/05 11:55:09;;;;;;;;;;;;;;;2.03;100.00;100595.56;5078364;28;19928;-77
2021/01/05 11:57:36;;;;;;;;;;;;;;;1.99;100.00;100591.84;5096274;28;19931;-77
2021/01/05 12:00:04;;;;;;;;;;;;;;;2.07;100.00;100580.00;5078202;28;20023;-76
2021/01/05 12:02:39;;;;;;;;;;;;;;;1.98;100.00;100583.91;5096029;28;20018;-77
2021/01/05 12:05:06;;;;;;;;;;;;;;;2.00;100.00;100587.16;5096205;28;19928;-77
2021/01/05 12:07:33;;;;;;;;;;;;;;;1.92;100.00;100589.59;5096155;28;19924;-78
2021/01/05 12:09:59;;;;;;;;;;;;;;;2.00;100.00;100584.41;5095853;28;19924;-77
2021/01/05 12:12:26;;;;;;;;;;;;;;;1.89;100.00;100576.47;5095757;28;19927;-77
2021/01/05 12:14:52;;;;;;;;;;;;;;;1.86;100.00;100582.66;5095327;28;19924;-77
2021/01/05 12:17:19;;;;;;;;;;;;;;;1.75;100.00;100573.16;5096258;28;19924;-78
2021/01/05 12:19:45;;;;;;;;;;;;;;;1.68;100.00;100567.31;5045141;28;19924;-79
2021/01/05 12:22:12;;;;;;;;;;;;;;;1.74;100.00;100566.00;5095864;28;19969;-80
2021/01/05 12:24:41;;;;;;;;;;;;;;;1.89;100.00;100581.19;5077749;28;20374;-79
2021/01/05 12:27:10;;;;;;;;;;;;;;;2.05;100.00;100582.25;5095448;28;19931;-80
2021/01/05 12:29:37;;;;;;;;;;;;;;;2.17;100.00;100587.06;5077462;28;19928;-80
2021/01/05 12:32:15;;;;;;;;;;;;;;;2.22;100.00;100578.63;5077649;28;19924;-78
2021/01/05 12:34:42;;;;;;;;;;;;;;;2.18;100.00;100575.69;5060811;28;19924;-78
2021/01/05 12:37:10;;;;;;;;;;;;;;;2.07;100.00;100579.19;5060965;28;20402;-78
2021/01/05 12:39:37;;;;;;;;;;;;;;;2.08;100.00;100575.28;5095577;28;19931;-78
2021/01/05 12:42:08;;;;;;;;;;;;;;;2.09;100.00;100572.19;5095418;28;19928;-78
2021/01/05 12:47:50;;;;;;;;;;;;;;;2.15;100.00;100581.09;5094804;28;19916;-79
2021/01/05 12:50:18;;;;;;;;;;;;;;;2.17;100.00;100567.75;5111674;28;19966;-78
2021/01/05 12:52:47;;;;;;;;;;;;;;;2.27;100.00;100557.19;5100472;28;19924;-78
2021/01/05 12:55:15;;;;;;;;;;;;;;;2.31;100.00;100560.06;5105855;28;19978;-78
2021/01/05 12:57:42;;;;;;;;;;;;;;;2.29;100.00;100559.63;5099945;28;20251;-78
2021/01/05 13:00:09;;;;;;;;;;;;;;;2.39;100.00;100556.47;5096860;28;20416;-78